Terminal Aerodrome Forecast
Issued by NWS

Home | Current Version | Previous Version | Text Only | Print | Product List | Glossary On
Versions: 1 2 3 4 5 6 7 8 9 10 11 12 13 14 15 16 17 18 19 20 21 22 23 24 25 26 27
000
FTUS44 KOUN 231126
TAFCSM
TAF
KCSM 231126Z 2312/2412 13013KT 1/4SM FG VCSH VV002
     FM231500 14013KT 2SM BR VCSH OVC005
     FM231600 14013KT 5SM -TSRA SCT007 OVC025CB
      TEMPO 2316/2318 1SM +TSRA BR BKN007CB
     FM240200 15012KT 3SM BR OVC007=

USA.gov is the U.S. government's official web portal to all federal, state and local government web resources and services.